sensor_id;sensor_type;location;lat;lon;timestamp;temperature;humidity
21061;DHT22;10689;50.836;3.266;2023-01-15T00:02:11;9.40;99.90
21061;DHT22;10689;50.836;3.266;2023-01-15T00:04:37;9.20;99.90
21061;DHT22;10689;50.836;3.266;2023-01-15T00:07:03;9.10;99.90
21061;DHT22;10689;50.836;3.266;2023-01-15T00:09:29;9.00;99.90
21061;DHT22;10689;50.836;3.266;2023-01-15T00:11:57;9.10;99.90
21061;DHT22;10689;50.836;3.266;2023-01-15T00:14:23;9.20;99.90
21061;DHT22;10689;50.836;3.266;2023-01-15T00:16:54;9.20;99.90
21061;DHT22;10689;50.836;3.266;2023-01-15T00:19:19;9.30;99.90
21061;DHT22;10689;50.836;3.266;2023-01-15T00:21:45;9.30;99.90
21061;DHT22;10689;50.836;3.266;2023-01-15T00:24:11;9.40;99.90
21061;DHT22;10689;50.836;3.266;2023-01-15T00:26:56;9.40;99.90
21061;DHT22;10689;50.836;3.266;2023-01-15T00:29:40;9.40;99.90
21061;DHT22;10689;50.836;3.266;2023-01-15T00:32:07;9.40;99.90
21061;DHT22;10689;50.836;3.266;2023-01-15T00:34:35;9.50;99.90
21061;DHT22;10689;50.836;3.266;2023-01-15T00:37:01;9.40;99.90
21061;DHT22;10689;50.836;3.266;2023-01-15T00:39:27;9.50;99.90
21061;DHT22;10689;50.836;3.266;2023-01-15T00:41:53;9.50;99.90
21061;DHT22;10689;50.836;3.266;2023-01-15T00:44:20;9.40;99.90
21061;DHT22;10689;50.836;3.266;2023-01-15T00:46:46;9.40;99.90
21061;DHT22;10689;50.836;3.266;2023-01-15T00:49:12;9.30;99.90
21061;DHT22;10689;50.836;3.266;2023-01-15T00:51:38;9.20;99.90
21061;DHT22;10689;50.836;3.266;2023-01-15T00:54:06;9.20;99.90
21061;DHT22;10689;50.836;3.266;2023-01-15T00:56:34;9.10;99.90
21061;DHT22;10689;50.836;3.266;2023-01-15T00:59:04;9.20;99.90
21061;DHT22;10689;50.836;3.266;2023-01-15T01:01:32;9.20;99.90
21061;DHT22;10689;50.836;3.266;2023-01-15T01:03:58;9.20;99.90
21061;DHT22;10689;50.836;3.266;2023-01-15T01:06:24;9.20;99.90
21061;DHT22;10689;50.836;3.266;2023-01-15T01:08:50;9.20;99.90
21061;DHT22;10689;50.836;3.266;2023-01-15T01:11:20;9.20;99.90
21061;DHT22;10689;50.836;3.266;2023-01-15T01:13:48;9.10;99.90
21061;DHT22;10689;50.836;3.266;2023-01-15T01:16:34;9.00;99.90
21061;DHT22;10689;50.836;3.266;2023-01-15T01:19:06;9.10;99.90
21061;DHT22;10689;50.836;3.266;2023-01-15T01:21:35;9.10;99.90
21061;DHT22;10689;50.836;3.266;2023-01-15T01:24:01;9.10;99.90
21061;DHT22;10689;50.836;3.266;2023-01-15T01:26:30;9.10;99.90
21061;DHT22;10689;50.836;3.266;2023-01-15T01:28:56;9.00;99.90
21061;DHT22;10689;50.836;3.266;2023-01-15T01:31:24;9.10;99.90
21061;DHT22;10689;50.836;3.266;2023-01-15T01:33:55;9.00;99.90
21061;DHT22;10689;50.836;3.266;2023-01-15T01:36:31;9.00;99.90
21061;DHT22;10689;50.836;3.266;2023-01-15T01:38:58;9.00;99.90
21061;DHT22;10689;50.836;3.266;2023-01-15T01:41:25;9.00;99.90
21061;DHT22;10689;50.836;3.266;2023-01-15T01:43:52;9.00;99.90
21061;DHT22;10689;50.836;3.266;2023-01-15T01:46:18;9.00;99.90
21061;DHT22;10689;50.836;3.266;2023-01-15T01:48:44;9.00;99.90
21061;DHT22;10689;50.836;3.266;2023-01-15T01:51:11;9.00;99.90
21061;DHT22;10689;50.836;3.266;2023-01-15T01:53:37;9.00;99.90
21061;DHT22;10689;50.836;3.266;2023-01-15T01:56:07;9.00;99.90
21061;DHT22;10689;50.836;3.266;2023-01-15T01:58:37;9.00;99.90
21061;DHT22;10689;50.836;3.266;2023-01-15T02:01:03;9.00;99.90
21061;DHT22;10689;50.836;3.266;2023-01-15T02:03:34;8.90;99.90
21061;DHT22;10689;50.836;3.266;2023-01-15T02:06:03;8.90;99.90
21061;DHT22;10689;50.836;3.266;2023-01-15T02:08:32;8.90;99.90
21061;DHT22;10689;50.836;3.266;2023-01-15T02:10:59;8.90;99.90
21061;DHT22;10689;50.836;3.266;2023-01-15T02:13:43;8.90;99.90
21061;DHT22;10689;50.836;3.266;2023-01-15T02:18:55;8.80;99.90
21061;DHT22;10689;50.836;3.266;2023-01-15T02:24:43;8.80;99.90
21061;DHT22;10689;50.836;3.266;2023-01-15T02:27:19;8.70;99.90
21061;DHT22;10689;50.836;3.266;2023-01-15T02:30:15;8.70;99.90
21061;DHT22;10689;50.836;3.266;2023-01-15T02:32:55;8.60;99.90
21061;DHT22;10689;50.836;3.266;2023-01-15T02:35:33;8.70;99.90
21061;DHT22;10689;50.836;3.266;2023-01-15T02:38:05;8.80;99.90
21061;DHT22;10689;50.836;3.266;2023-01-15T02:40:34;8.70;99.90
21061;DHT22;10689;50.836;3.266;2023-01-15T02:43:01;8.60;99.90
21061;DHT22;10689;50.836;3.266;2023-01-15T02:45:33;8.50;99.90
21061;DHT22;10689;50.836;3.266;2023-01-15T02:48:11;8.50;99.90
21061;DHT22;10689;50.836;3.266;2023-01-15T02:50:44;8.60;99.90
21061;DHT22;10689;50.836;3.266;2023-01-15T02:53:18;8.50;99.90
21061;DHT22;10689;50.836;3.266;2023-01-15T02:55:49;8.50;99.90
21061;DHT22;10689;50.836;3.266;2023-01-15T02:58:20;8.40;99.90
21061;DHT22;10689;50.836;3.266;2023-01-15T03:00:48;8.40;99.90
21061;DHT22;10689;50.836;3.266;2023-01-15T03:08:16;8.50;99.90
21061;DHT22;10689;50.836;3.266;2023-01-15T03:13:30;8.50;99.90
21061;DHT22;10689;50.836;3.266;2023-01-15T03:16:11;8.50;99.90
21061;DHT22;10689;50.836;3.266;2023-01-15T03:22:25;8.50;99.90
21061;DHT22;10689;50.836;3.266;2023-01-15T03:25:12;8.50;99.90
21061;DHT22;10689;50.836;3.266;2023-01-15T03:27:41;8.40;99.90
21061;DHT22;10689;50.836;3.266;2023-01-15T03:30:15;8.20;99.90
21061;DHT22;10689;50.836;3.266;2023-01-15T03:32:41;8.10;99.90
21061;DHT22;10689;50.836;3.266;2023-01-15T03:35:50;8.20;99.90
21061;DHT22;10689;50.836;3.266;2023-01-15T03:38:19;8.10;99.90
21061;DHT22;10689;50.836;3.266;2023-01-15T03:40:55;8.00;99.90
21061;DHT22;10689;50.836;3.266;2023-01-15T03:52:02;8.10;99.90
21061;DHT22;10689;50.836;3.266;2023-01-15T03:54:52;8.00;99.90
21061;DHT22;10689;50.836;3.266;2023-01-15T03:59:57;8.10;99.90
21061;DHT22;10689;50.836;3.266;2023-01-15T04:02:24;8.10;99.90
21061;DHT22;10689;50.836;3.266;2023-01-15T04:04:55;8.20;99.90
21061;DHT22;10689;50.836;3.266;2023-01-15T04:07:24;8.20;99.90
21061;DHT22;10689;50.836;3.266;2023-01-15T04:09:50;8.20;99.90
21061;DHT22;10689;50.836;3.266;2023-01-15T04:12:16;8.40;99.90
21061;DHT22;10689;50.836;3.266;2023-01-15T04:14:44;8.40;99.90
21061;DHT22;10689;50.836;3.266;2023-01-15T04:17:12;8.40;99.90
21061;DHT22;10689;50.836;3.266;2023-01-15T04:19:38;8.40;99.90
21061;DHT22;10689;50.836;3.266;2023-01-15T04:22:04;8.40;99.90
21061;DHT22;10689;50.836;3.266;2023-01-15T04:24:30;8.40;99.90
21061;DHT22;10689;50.836;3.266;2023-01-15T04:26:55;8.50;99.90
21061;DHT22;10689;50.836;3.266;2023-01-15T04:29:21;8.50;99.90
21061;DHT22;10689;50.836;3.266;2023-01-15T04:31:48;8.50;99.90
21061;DHT22;10689;50.836;3.266;2023-01-15T04:34:17;8.50;99.90
21061;DHT22;10689;50.836;3.266;2023-01-15T04:36:43;8.50;99.90
21061;DHT22;10689;50.836;3.266;2023-01-15T04:39:11;8.50;99.90
21061;DHT22;10689;50.836;3.266;2023-01-15T04:41:37;8.50;99.90
21061;DHT22;10689;50.836;3.266;2023-01-15T04:44:21;8.40;99.90
21061;DHT22;10689;50.836;3.266;2023-01-15T04:46:52;8.40;99.90
21061;DHT22;10689;50.836;3.266;2023-01-15T04:49:21;8.40;99.90
21061;DHT22;10689;50.836;3.266;2023-01-15T04:51:47;8.20;99.90
21061;DHT22;10689;50.836;3.266;2023-01-15T04:54:14;8.00;99.90
21061;DHT22;10689;50.836;3.266;2023-01-15T04:56:43;8.10;99.90
21061;DHT22;10689;50.836;3.266;2023-01-15T04:59:09;8.20;99.90
21061;DHT22;10689;50.836;3.266;2023-01-15T05:01:36;8.20;99.90
21061;DHT22;10689;50.836;3.266;2023-01-15T05:04:01;8.20;99.90
21061;DHT22;10689;50.836;3.266;2023-01-15T05:06:28;8.00;99.90
21061;DHT22;10689;50.836;3.266;2023-01-15T05:08:56;7.70;99.90
21061;DHT22;10689;50.836;3.266;2023-01-15T05:11:22;7.50;99.90
21061;DHT22;10689;50.836;3.266;2023-01-15T05:13:48;7.40;99.90
21061;DHT22;10689;50.836;3.266;2023-01-15T05:16:25;7.30;99.90
21061;DHT22;10689;50.836;3.266;2023-01-15T05:18:52;7.20;99.90
21061;DHT22;10689;50.836;3.266;2023-01-15T05:21:24;7.10;99.90
21061;DHT22;10689;50.836;3.266;2023-01-15T05:23:51;7.00;99.90
21061;DHT22;10689;50.836;3.266;2023-01-15T05:26:18;7.00;99.90
21061;DHT22;10689;50.836;3.266;2023-01-15T05:28:44;7.00;99.90
21061;DHT22;10689;50.836;3.266;2023-01-15T05:31:13;6.80;99.90
21061;DHT22;10689;50.836;3.266;2023-01-15T05:33:42;6.80;99.90
21061;DHT22;10689;50.836;3.266;2023-01-15T05:36:14;6.80;99.90
21061;DHT22;10689;50.836;3.266;2023-01-15T05:38:40;6.80;99.90
21061;DHT22;10689;50.836;3.266;2023-01-15T05:41:12;6.80;99.90
21061;DHT22;10689;50.836;3.266;2023-01-15T05:44:00;6.80;99.90
21061;DHT22;10689;50.836;3.266;2023-01-15T05:46:26;6.80;99.90
21061;DHT22;10689;50.836;3.266;2023-01-15T05:48:52;6.70;99.90
21061;DHT22;10689;50.836;3.266;2023-01-15T05:51:18;6.60;99.90
21061;DHT22;10689;50.836;3.266;2023-01-15T05:53:43;6.60;99.90
21061;DHT22;10689;50.836;3.266;2023-01-15T05:56:09;6.50;99.90
21061;DHT22;10689;50.836;3.266;2023-01-15T05:58:38;6.50;99.90
21061;DHT22;10689;50.836;3.266;2023-01-15T06:01:07;6.40;99.90
21061;DHT22;10689;50.836;3.266;2023-01-15T06:03:33;6.40;99.90
21061;DHT22;10689;50.836;3.266;2023-01-15T06:06:02;6.30;99.90
21061;DHT22;10689;50.836;3.266;2023-01-15T06:08:28;6.30;99.90
21061;DHT22;10689;50.836;3.266;2023-01-15T06:10:53;6.20;99.90
21061;DHT22;10689;50.836;3.266;2023-01-15T06:13:19;6.10;99.90
21061;DHT22;10689;50.836;3.266;2023-01-15T06:15:45;6.20;99.90
21061;DHT22;10689;50.836;3.266;2023-01-15T06:18:11;6.10;99.90
21061;DHT22;10689;50.836;3.266;2023-01-15T06:20:40;6.00;99.90
21061;DHT22;10689;50.836;3.266;2023-01-15T06:23:07;6.00;99.90
21061;DHT22;10689;50.836;3.266;2023-01-15T06:25:38;5.90;99.90
21061;DHT22;10689;50.836;3.266;2023-01-15T06:28:04;6.00;99.90
21061;DHT22;10689;50.836;3.266;2023-01-15T06:30:30;5.90;99.90
21061;DHT22;10689;50.836;3.266;2023-01-15T06:32:57;5.90;99.90
21061;DHT22;10689;50.836;3.266;2023-01-15T06:35:24;5.80;99.90
21061;DHT22;10689;50.836;3.266;2023-01-15T06:37:50;5.80;99.90
21061;DHT22;10689;50.836;3.266;2023-01-15T06:40:17;5.80;99.90
21061;DHT22;10689;50.836;3.266;2023-01-15T06:42:42;5.80;99.90
21061;DHT22;10689;50.836;3.266;2023-01-15T06:45:31;5.70;99.90
21061;DHT22;10689;50.836;3.266;2023-01-15T06:48:16;5.80;99.90
21061;DHT22;10689;50.836;3.266;2023-01-15T06:50:43;5.90;99.90
21061;DHT22;10689;50.836;3.266;2023-01-15T06:53:09;5.90;99.90
21061;DHT22;10689;50.836;3.266;2023-01-15T06:55:35;5.90;99.90
21061;DHT22;10689;50.836;3.266;2023-01-15T06:58:02;5.90;99.90
21061;DHT22;10689;50.836;3.266;2023-01-15T07:00:28;5.90;99.90
21061;DHT22;10689;50.836;3.266;2023-01-15T07:02:53;5.80;99.90
21061;DHT22;10689;50.836;3.266;2023-01-15T07:05:19;5.90;99.90
21061;DHT22;10689;50.836;3.266;2023-01-15T07:07:45;6.00;99.90
21061;DHT22;10689;50.836;3.266;2023-01-15T07:10:11;5.80;99.90
21061;DHT22;10689;50.836;3.266;2023-01-15T07:12:37;5.80;99.90
21061;DHT22;10689;50.836;3.266;2023-01-15T07:15:05;5.70;99.90
21061;DHT22;10689;50.836;3.266;2023-01-15T07:17:33;5.70;99.90
21061;DHT22;10689;50.836;3.266;2023-01-15T07:19:59;5.70;99.90
21061;DHT22;10689;50.836;3.266;2023-01-15T07:22:28;5.70;99.90
21061;DHT22;10689;50.836;3.266;2023-01-15T07:24:53;5.80;99.90
21061;DHT22;10689;50.836;3.266;2023-01-15T07:27:19;5.90;99.90
21061;DHT22;10689;50.836;3.266;2023-01-15T07:29:47;5.90;99.90
21061;DHT22;10689;50.836;3.266;2023-01-15T07:32:14;5.90;99.90
21061;DHT22;10689;50.836;3.266;2023-01-15T07:34:40;5.80;99.90
21061;DHT22;10689;50.836;3.266;2023-01-15T07:37:05;5.80;99.90
21061;DHT22;10689;50.836;3.266;2023-01-15T07:39:32;5.70;99.90
21061;DHT22;10689;50.836;3.266;2023-01-15T07:41:58;5.70;99.90
21061;DHT22;10689;50.836;3.266;2023-01-15T07:44:42;5.60;99.90
21061;DHT22;10689;50.836;3.266;2023-01-15T07:47:27;5.70;99.90
21061;DHT22;10689;50.836;3.266;2023-01-15T07:50:17;5.80;99.90
21061;DHT22;10689;50.836;3.266;2023-01-15T07:52:43;5.60;99.90
21061;DHT22;10689;50.836;3.266;2023-01-15T07:55:09;5.70;99.90
21061;DHT22;10689;50.836;3.266;2023-01-15T07:57:37;5.70;99.90
21061;DHT22;10689;50.836;3.266;2023-01-15T08:00:06;5.70;99.90
21061;DHT22;10689;50.836;3.266;2023-01-15T08:02:32;5.70;99.90
21061;DHT22;10689;50.836;3.266;2023-01-15T08:04:58;5.80;99.90
21061;DHT22;10689;50.836;3.266;2023-01-15T08:07:26;5.80;99.90
21061;DHT22;10689;50.836;3.266;2023-01-15T08:09:52;5.70;99.90
21061;DHT22;10689;50.836;3.266;2023-01-15T08:12:20;5.80;99.90
21061;DHT22;10689;50.836;3.266;2023-01-15T08:15:05;5.80;99.90
21061;DHT22;10689;50.836;3.266;2023-01-15T08:17:46;5.90;99.90
21061;DHT22;10689;50.836;3.266;2023-01-15T08:20:14;6.00;99.90
21061;DHT22;10689;50.836;3.266;2023-01-15T08:22:41;6.00;99.90
21061;DHT22;10689;50.836;3.266;2023-01-15T08:25:08;6.00;99.90
21061;DHT22;10689;50.836;3.266;2023-01-15T08:27:35;6.00;99.90
21061;DHT22;10689;50.836;3.266;2023-01-15T08:30:02;6.10;99.90
21061;DHT22;10689;50.836;3.266;2023-01-15T08:32:28;6.00;99.90
21061;DHT22;10689;50.836;3.266;2023-01-15T08:34:53;6.20;99.90
21061;DHT22;10689;50.836;3.266;2023-01-15T08:37:19;6.30;99.90
21061;DHT22;10689;50.836;3.266;2023-01-15T08:39:45;6.30;99.90
21061;DHT22;10689;50.836;3.266;2023-01-15T08:42:11;6.30;99.90
21061;DHT22;10689;50.836;3.266;2023-01-15T08:44:42;6.40;99.90
21061;DHT22;10689;50.836;3.266;2023-01-15T08:47:08;6.40;99.90
21061;DHT22;10689;50.836;3.266;2023-01-15T08:49:33;6.50;99.90
21061;DHT22;10689;50.836;3.266;2023-01-15T08:51:59;6.60;99.90
21061;DHT22;10689;50.836;3.266;2023-01-15T08:54:26;6.70;99.90
21061;DHT22;10689;50.836;3.266;2023-01-15T08:56:52;6.80;99.90
21061;DHT22;10689;50.836;3.266;2023-01-15T08:59:17;6.70;99.90
21061;DHT22;10689;50.836;3.266;2023-01-15T09:01:44;6.70;99.90
21061;DHT22;10689;50.836;3.266;2023-01-15T09:04:17;6.60;99.90
21061;DHT22;10689;50.836;3.266;2023-01-15T09:06:44;6.50;99.90
21061;DHT22;10689;50.836;3.266;2023-01-15T09:09:11;6.50;99.90
21061;DHT22;10689;50.836;3.266;2023-01-15T09:11:40;6.40;99.90
21061;DHT22;10689;50.836;3.266;2023-01-15T09:14:08;6.30;99.90
21061;DHT22;10689;50.836;3.266;2023-01-15T09:16:35;6.20;99.90
21061;DHT22;10689;50.836;3.266;2023-01-15T09:19:01;6.20;99.90
21061;DHT22;10689;50.836;3.266;2023-01-15T09:21:26;6.10;99.90
21061;DHT22;10689;50.836;3.266;2023-01-15T09:23:52;6.10;99.90
21061;DHT22;10689;50.836;3.266;2023-01-15T09:26:26;6.10;99.90
21061;DHT22;10689;50.836;3.266;2023-01-15T09:28:55;6.10;99.90
21061;DHT22;10689;50.836;3.266;2023-01-15T09:31:22;6.00;99.90
21061;DHT22;10689;50.836;3.266;2023-01-15T09:33:47;6.00;99.90
21061;DHT22;10689;50.836;3.266;2023-01-15T09:36:16;6.10;99.90
21061;DHT22;10689;50.836;3.266;2023-01-15T09:38:44;6.20;99.90
21061;DHT22;10689;50.836;3.266;2023-01-15T09:41:14;6.20;99.90
21061;DHT22;10689;50.836;3.266;2023-01-15T09:44:25;6.30;99.90
21061;DHT22;10689;50.836;3.266;2023-01-15T09:55:14;6.30;99.90
21061;DHT22;10689;50.836;3.266;2023-01-15T09:57:45;6.30;99.90
21061;DHT22;10689;50.836;3.266;2023-01-15T10:00:19;6.40;99.90
21061;DHT22;10689;50.836;3.266;2023-01-15T10:02:52;6.60;99.90
21061;DHT22;10689;50.836;3.266;2023-01-15T10:05:22;6.70;99.90
21061;DHT22;10689;50.836;3.266;2023-01-15T10:10:34;6.80;99.90
21061;DHT22;10689;50.836;3.266;2023-01-15T10:16:09;6.90;99.90
21061;DHT22;10689;50.836;3.266;2023-01-15T10:18:35;7.10;99.90
21061;DHT22;10689;50.836;3.266;2023-01-15T10:24:11;7.30;99.90
21061;DHT22;10689;50.836;3.266;2023-01-15T10:26:54;7.40;99.90
21061;DHT22;10689;50.836;3.266;2023-01-15T10:29:42;7.50;99.90
21061;DHT22;10689;50.836;3.266;2023-01-15T10:32:16;7.60;99.90
21061;DHT22;10689;50.836;3.266;2023-01-15T10:35:20;7.70;99.90
21061;DHT22;10689;50.836;3.266;2023-01-15T10:38:22;7.70;99.90
21061;DHT22;10689;50.836;3.266;2023-01-15T10:43:41;7.70;99.90
21061;DHT22;10689;50.836;3.266;2023-01-15T10:46:14;7.80;99.90
21061;DHT22;10689;50.836;3.266;2023-01-15T10:48:48;7.90;99.90
21061;DHT22;10689;50.836;3.266;2023-01-15T10:51:23;8.10;99.90
21061;DHT22;10689;50.836;3.266;2023-01-15T10:54:05;8.20;99.90
21061;DHT22;10689;50.836;3.266;2023-01-15T10:56:40;8.30;99.90
21061;DHT22;10689;50.836;3.266;2023-01-15T11:02:09;8.60;99.90
21061;DHT22;10689;50.836;3.266;2023-01-15T11:04:40;8.70;99.90
21061;DHT22;10689;50.836;3.266;2023-01-15T11:07:09;8.70;99.90
21061;DHT22;10689;50.836;3.266;2023-01-15T11:09:36;8.80;99.90
21061;DHT22;10689;50.836;3.266;2023-01-15T11:12:22;8.90;99.90
21061;DHT22;10689;50.836;3.266;2023-01-15T11:14:49;9.00;99.90
21061;DHT22;10689;50.836;3.266;2023-01-15T11:17:41;8.90;99.90
21061;DHT22;10689;50.836;3.266;2023-01-15T11:20:29;8.90;99.90
21061;DHT22;10689;50.836;3.266;2023-01-15T11:22:56;8.90;99.90
21061;DHT22;10689;50.836;3.266;2023-01-15T11:25:31;8.70;99.90
21061;DHT22;10689;50.836;3.266;2023-01-15T11:28:01;8.70;99.90
21061;DHT22;10689;50.836;3.266;2023-01-15T11:30:36;8.70;99.90
21061;DHT22;10689;50.836;3.266;2023-01-15T11:33:05;8.70;99.90
21061;DHT22;10689;50.836;3.266;2023-01-15T11:35:35;8.70;99.90
21061;DHT22;10689;50.836;3.266;2023-01-15T11:38:05;8.30;99.90
21061;DHT22;10689;50.836;3.266;2023-01-15T11:40:32;8.40;99.90
21061;DHT22;10689;50.836;3.266;2023-01-15T11:42:58;8.40;99.90
21061;DHT22;10689;50.836;3.266;2023-01-15T11:45:52;8.50;99.90
21061;DHT22;10689;50.836;3.266;2023-01-15T11:48:56;8.50;99.90
21061;DHT22;10689;50.836;3.266;2023-01-15T11:51:43;8.40;99.90
21061;DHT22;10689;50.836;3.266;2023-01-15T11:54:12;8.20;99.90
21061;DHT22;10689;50.836;3.266;2023-01-15T11:56:44;8.20;99.90
21061;DHT22;10689;50.836;3.266;2023-01-15T11:59:15;8.20;99.90
21061;DHT22;10689;50.836;3.266;2023-01-15T12:06:52;9.00;99.90
21061;DHT22;10689;50.836;3.266;2023-01-15T12:09:53;8.90;99.90
21061;DHT22;10689;50.836;3.266;2023-01-15T12:18:49;9.50;99.90
21061;DHT22;10689;50.836;3.266;2023-01-15T12:29:18;9.70;99.90
21061;DHT22;10689;50.836;3.266;2023-01-15T12:31:54;9.70;99.90
21061;DHT22;10689;50.836;3.266;2023-01-15T12:37:08;9.30;99.90
21061;DHT22;10689;50.836;3.266;2023-01-15T12:39:53;9.00;99.90
21061;DHT22;10689;50.836;3.266;2023-01-15T12:42:23;9.10;99.90
21061;DHT22;10689;50.836;3.266;2023-01-15T12:45:20;9.20;99.90
21061;DHT22;10689;50.836;3.266;2023-01-15T12:48:11;9.00;99.90
21061;DHT22;10689;50.836;3.266;2023-01-15T12:50:49;9.00;99.90
21061;DHT22;10689;50.836;3.266;2023-01-15T12:56:23;8.80;99.90
21061;DHT22;10689;50.836;3.266;2023-01-15T13:02:09;8.70;99.90
21061;DHT22;10689;50.836;3.266;2023-01-15T13:07:33;8.40;99.90
21061;DHT22;10689;50.836;3.266;2023-01-15T13:10:24;8.40;99.90
21061;DHT22;10689;50.836;3.266;2023-01-15T13:12:53;8.40;99.90
21061;DHT22;10689;50.836;3.266;2023-01-15T13:15:23;8.30;99.90
21061;DHT22;10689;50.836;3.266;2023-01-15T13:18:05;8.30;99.90
21061;DHT22;10689;50.836;3.266;2023-01-15T13:21:09;8.20;99.90
21061;DHT22;10689;50.836;3.266;2023-01-15T13:26:21;8.10;99.90
21061;DHT22;10689;50.836;3.266;2023-01-15T13:36:50;7.90;99.90
21061;DHT22;10689;50.836;3.266;2023-01-15T13:39:21;7.90;99.90
21061;DHT22;10689;50.836;3.266;2023-01-15T13:41:52;7.80;99.90
21061;DHT22;10689;50.836;3.266;2023-01-15T13:44:50;7.80;99.90
21061;DHT22;10689;50.836;3.266;2023-01-15T13:47:23;7.80;99.90
21061;DHT22;10689;50.836;3.266;2023-01-15T13:50:04;7.90;99.90
21061;DHT22;10689;50.836;3.266;2023-01-15T13:52:33;7.90;99.90
21061;DHT22;10689;50.836;3.266;2023-01-15T13:55:09;7.90;99.90
21061;DHT22;10689;50.836;3.266;2023-01-15T13:57:38;7.80;99.90
21061;DHT22;10689;50.836;3.266;2023-01-15T14:00:24;7.80;99.90
21061;DHT22;10689;50.836;3.266;2023-01-15T14:02:53;7.80;99.90
21061;DHT22;10689;50.836;3.266;2023-01-15T14:07:47;7.70;99.90
21061;DHT22;10689;50.836;3.266;2023-01-15T14:18:22;7.70;99.90
21061;DHT22;10689;50.836;3.266;2023-01-15T14:21:03;7.60;99.90
21061;DHT22;10689;50.836;3.266;2023-01-15T14:23:38;7.60;99.90
21061;DHT22;10689;50.836;3.266;2023-01-15T14:31:23;7.60;99.90
21061;DHT22;10689;50.836;3.266;2023-01-15T14:36:50;7.60;99.90
21061;DHT22;10689;50.836;3.266;2023-01-15T14:42:22;7.60;99.90
21061;DHT22;10689;50.836;3.266;2023-01-15T14:47:44;7.60;99.90
21061;DHT22;10689;50.836;3.266;2023-01-15T14:58:43;7.20;99.90
21061;DHT22;10689;50.836;3.266;2023-01-15T15:07:19;7.10;99.90
21061;DHT22;10689;50.836;3.266;2023-01-15T15:12:57;6.80;99.90
21061;DHT22;10689;50.836;3.266;2023-01-15T15:18:44;6.60;99.90
21061;DHT22;10689;50.836;3.266;2023-01-15T15:21:38;6.70;99.90
21061;DHT22;10689;50.836;3.266;2023-01-15T15:24:33;6.80;99.90
21061;DHT22;10689;50.836;3.266;2023-01-15T15:27:28;6.80;99.90
21061;DHT22;10689;50.836;3.266;2023-01-15T15:30:14;6.70;99.90
21061;DHT22;10689;50.836;3.266;2023-01-15T15:32:43;6.70;99.90
21061;DHT22;10689;50.836;3.266;2023-01-15T15:35:29;6.70;99.90
21061;DHT22;10689;50.836;3.266;2023-01-15T15:38:02;6.70;99.90
21061;DHT22;10689;50.836;3.266;2023-01-15T15:40:32;6.60;99.90
21061;DHT22;10689;50.836;3.266;2023-01-15T15:43:16;6.60;99.90
21061;DHT22;10689;50.836;3.266;2023-01-15T15:46:02;6.60;99.90
21061;DHT22;10689;50.836;3.266;2023-01-15T15:49:05;6.50;99.90
21061;DHT22;10689;50.836;3.266;2023-01-15T15:51:45;6.50;99.90
21061;DHT22;10689;50.836;3.266;2023-01-15T15:54:18;6.50;99.90
21061;DHT22;10689;50.836;3.266;2023-01-15T15:57:06;6.30;99.90
21061;DHT22;10689;50.836;3.266;2023-01-15T16:04:49;6.20;99.90
21061;DHT22;10689;50.836;3.266;2023-01-15T16:07:29;6.30;99.90
21061;DHT22;10689;50.836;3.266;2023-01-15T16:10:14;6.40;99.90
21061;DHT22;10689;50.836;3.266;2023-01-15T16:12:55;6.40;99.90
21061;DHT22;10689;50.836;3.266;2023-01-15T16:15:26;6.40;99.90
21061;DHT22;10689;50.836;3.266;2023-01-15T16:17:55;6.50;99.90
21061;DHT22;10689;50.836;3.266;2023-01-15T16:20:22;6.50;99.90
21061;DHT22;10689;50.836;3.266;2023-01-15T16:23:02;6.50;99.90
21061;DHT22;10689;50.836;3.266;2023-01-15T16:25:39;6.60;99.90
21061;DHT22;10689;50.836;3.266;2023-01-15T16:28:16;6.60;99.90
21061;DHT22;10689;50.836;3.266;2023-01-15T16:30:54;6.30;99.90
21061;DHT22;10689;50.836;3.266;2023-01-15T16:33:23;6.00;99.90
21061;DHT22;10689;50.836;3.266;2023-01-15T16:35:55;6.10;99.90
21061;DHT22;10689;50.836;3.266;2023-01-15T16:38:25;5.90;99.90
21061;DHT22;10689;50.836;3.266;2023-01-15T16:40:51;5.80;99.90
21061;DHT22;10689;50.836;3.266;2023-01-15T16:43:22;5.90;99.90
21061;DHT22;10689;50.836;3.266;2023-01-15T16:48:25;6.00;99.90
21061;DHT22;10689;50.836;3.266;2023-01-15T16:50:52;6.10;99.90
21061;DHT22;10689;50.836;3.266;2023-01-15T16:53:37;6.40;99.90
21061;DHT22;10689;50.836;3.266;2023-01-15T16:56:04;6.60;99.90
21061;DHT22;10689;50.836;3.266;2023-01-15T16:58:36;6.70;99.90
21061;DHT22;10689;50.836;3.266;2023-01-15T17:01:47;6.70;99.90
21061;DHT22;10689;50.836;3.266;2023-01-15T17:09:27;6.70;99.90
21061;DHT22;10689;50.836;3.266;2023-01-15T17:11:56;6.70;99.90
21061;DHT22;10689;50.836;3.266;2023-01-15T17:14:27;6.60;99.90
21061;DHT22;10689;50.836;3.266;2023-01-15T17:17:28;6.60;99.90
21061;DHT22;10689;50.836;3.266;2023-01-15T17:19:57;6.30;99.90
21061;DHT22;10689;50.836;3.266;2023-01-15T17:22:28;6.20;99.90
21061;DHT22;10689;50.836;3.266;2023-01-15T17:24:57;6.10;99.90
21061;DHT22;10689;50.836;3.266;2023-01-15T17:27:25;6.10;99.90
21061;DHT22;10689;50.836;3.266;2023-01-15T17:29:51;6.30;99.90
21061;DHT22;10689;50.836;3.266;2023-01-15T17:32:22;6.40;99.90
21061;DHT22;10689;50.836;3.266;2023-01-15T17:34:49;6.60;99.90
21061;DHT22;10689;50.836;3.266;2023-01-15T17:37:17;6.50;99.90
21061;DHT22;10689;50.836;3.266;2023-01-15T17:39:47;6.60;99.90
21061;DHT22;10689;50.836;3.266;2023-01-15T17:42:15;6.80;99.90
21061;DHT22;10689;50.836;3.266;2023-01-15T17:44:44;6.90;99.90
21061;DHT22;10689;50.836;3.266;2023-01-15T17:47:10;6.90;99.90
21061;DHT22;10689;50.836;3.266;2023-01-15T17:49:36;6.80;99.90
21061;DHT22;10689;50.836;3.266;2023-01-15T17:52:11;6.90;99.90
21061;DHT22;10689;50.836;3.266;2023-01-15T17:54:37;6.90;99.90
21061;DHT22;10689;50.836;3.266;2023-01-15T17:57:21;7.00;99.90
21061;DHT22;10689;50.836;3.266;2023-01-15T18:00:08;7.10;99.90
21061;DHT22;10689;50.836;3.266;2023-01-15T18:02:52;7.00;99.90
21061;DHT22;10689;50.836;3.266;2023-01-15T18:05:38;7.00;99.90
21061;DHT22;10689;50.836;3.266;2023-01-15T18:08:06;7.00;99.90
21061;DHT22;10689;50.836;3.266;2023-01-15T18:10:34;6.90;99.90
21061;DHT22;10689;50.836;3.266;2023-01-15T18:13:00;6.90;99.90
21061;DHT22;10689;50.836;3.266;2023-01-15T18:15:28;7.00;99.90
21061;DHT22;10689;50.836;3.266;2023-01-15T18:17:54;6.90;99.90
21061;DHT22;10689;50.836;3.266;2023-01-15T18:20:23;6.90;99.90
21061;DHT22;10689;50.836;3.266;2023-01-15T18:22:49;7.00;99.90
21061;DHT22;10689;50.836;3.266;2023-01-15T18:25:15;7.00;99.90
21061;DHT22;10689;50.836;3.266;2023-01-15T18:27:40;7.10;99.90
21061;DHT22;10689;50.836;3.266;2023-01-15T18:30:11;7.00;99.90
21061;DHT22;10689;50.836;3.266;2023-01-15T18:32:38;7.10;99.90
21061;DHT22;10689;50.836;3.266;2023-01-15T18:35:05;7.10;99.90
21061;DHT22;10689;50.836;3.266;2023-01-15T18:37:35;7.10;99.90
21061;DHT22;10689;50.836;3.266;2023-01-15T18:40:01;7.10;99.90
21061;DHT22;10689;50.836;3.266;2023-01-15T18:42:28;7.10;99.90
21061;DHT22;10689;50.836;3.266;2023-01-15T18:45:12;7.10;99.90
21061;DHT22;10689;50.836;3.266;2023-01-15T18:47:59;7.00;99.90